sensor_id;sensor_type;location;lat;lon;timestamp;temperature;humidity
802;DHT22;383;48.766;9.270;2023-05-29T00:00:30;15.10;77.00
802;DHT22;383;48.766;9.270;2023-05-29T00:02:57;15.00;77.50
802;DHT22;383;48.766;9.270;2023-05-29T00:05:24;15.00;77.90
802;DHT22;383;48.766;9.270;2023-05-29T00:07:50;15.00;77.90
802;DHT22;383;48.766;9.270;2023-05-29T00:10:17;15.00;77.80
802;DHT22;383;48.766;9.270;2023-05-29T00:12:45;15.00;77.90
802;DHT22;383;48.766;9.270;2023-05-29T00:15:12;15.00;77.40
802;DHT22;383;48.766;9.270;2023-05-29T00:17:38;15.00;78.20
802;DHT22;383;48.766;9.270;2023-05-29T00:20:06;15.00;78.50
802;DHT22;383;48.766;9.270;2023-05-29T00:22:34;14.90;78.50
802;DHT22;383;48.766;9.270;2023-05-29T00:25:03;14.90;78.50
802;DHT22;383;48.766;9.270;2023-05-29T00:27:30;14.90;78.70
802;DHT22;383;48.766;9.270;2023-05-29T00:29:59;14.90;78.90
802;DHT22;383;48.766;9.270;2023-05-29T00:32:26;14.90;78.90
802;DHT22;383;48.766;9.270;2023-05-29T00:34:53;14.90;78.60
802;DHT22;383;48.766;9.270;2023-05-29T00:37:20;14.80;78.70
802;DHT22;383;48.766;9.270;2023-05-29T00:39:47;14.80;78.70
802;DHT22;383;48.766;9.270;2023-05-29T00:42:14;14.90;78.90
802;DHT22;383;48.766;9.270;2023-05-29T00:44:41;14.80;79.00
802;DHT22;383;48.766;9.270;2023-05-29T00:47:09;14.80;79.00
802;DHT22;383;48.766;9.270;2023-05-29T00:49:36;14.70;78.90
802;DHT22;383;48.766;9.270;2023-05-29T00:52:05;14.70;79.00
802;DHT22;383;48.766;9.270;2023-05-29T00:54:33;14.60;79.10
802;DHT22;383;48.766;9.270;2023-05-29T00:57:01;14.60;79.30
802;DHT22;383;48.766;9.270;2023-05-29T00:59:30;14.60;79.30
802;DHT22;383;48.766;9.270;2023-05-29T01:01:58;14.50;79.40
802;DHT22;383;48.766;9.270;2023-05-29T01:04:27;14.50;79.80
802;DHT22;383;48.766;9.270;2023-05-29T01:06:55;14.50;80.30
802;DHT22;383;48.766;9.270;2023-05-29T01:09:22;14.50;80.30
802;DHT22;383;48.766;9.270;2023-05-29T01:11:57;14.40;80.40
802;DHT22;383;48.766;9.270;2023-05-29T01:14:31;14.40;80.60
802;DHT22;383;48.766;9.270;2023-05-29T01:17:04;14.40;80.20
802;DHT22;383;48.766;9.270;2023-05-29T01:19:57;14.40;80.30
802;DHT22;383;48.766;9.270;2023-05-29T01:22:35;14.30;80.60
802;DHT22;383;48.766;9.270;2023-05-29T01:25:11;14.20;80.70
802;DHT22;383;48.766;9.270;2023-05-29T01:27:41;14.20;80.70
802;DHT22;383;48.766;9.270;2023-05-29T01:30:11;14.20;80.60
802;DHT22;383;48.766;9.270;2023-05-29T01:32:39;14.20;80.30
802;DHT22;383;48.766;9.270;2023-05-29T01:35:08;14.20;80.40
802;DHT22;383;48.766;9.270;2023-05-29T01:37:35;14.20;80.30
802;DHT22;383;48.766;9.270;2023-05-29T01:40:02;14.10;80.40
802;DHT22;383;48.766;9.270;2023-05-29T01:42:30;14.10;80.70
802;DHT22;383;48.766;9.270;2023-05-29T01:44:58;14.10;80.70
802;DHT22;383;48.766;9.270;2023-05-29T01:47:26;14.00;80.60
802;DHT22;383;48.766;9.270;2023-05-29T01:49:54;14.00;80.60
802;DHT22;383;48.766;9.270;2023-05-29T01:52:21;14.00;80.70
802;DHT22;383;48.766;9.270;2023-05-29T01:54:47;13.90;81.10
802;DHT22;383;48.766;9.270;2023-05-29T01:57:14;13.80;81.50
802;DHT22;383;48.766;9.270;2023-05-29T01:59:41;13.70;81.60
802;DHT22;383;48.766;9.270;2023-05-29T02:02:10;13.60;82.00
802;DHT22;383;48.766;9.270;2023-05-29T02:04:37;13.50;82.70
802;DHT22;383;48.766;9.270;2023-05-29T02:07:04;13.50;83.00
802;DHT22;383;48.766;9.270;2023-05-29T02:09:31;13.60;82.60
802;DHT22;383;48.766;9.270;2023-05-29T02:11:58;13.60;82.30
802;DHT22;383;48.766;9.270;2023-05-29T02:14:26;13.60;82.40
802;DHT22;383;48.766;9.270;2023-05-29T02:16:52;13.50;82.70
802;DHT22;383;48.766;9.270;2023-05-29T02:19:20;13.50;82.70
802;DHT22;383;48.766;9.270;2023-05-29T02:21:51;13.50;82.70
802;DHT22;383;48.766;9.270;2023-05-29T02:24:17;13.50;82.70
802;DHT22;383;48.766;9.270;2023-05-29T02:26:45;13.50;82.70
802;DHT22;383;48.766;9.270;2023-05-29T02:29:12;13.40;82.80
802;DHT22;383;48.766;9.270;2023-05-29T02:31:38;13.30;83.20
802;DHT22;383;48.766;9.270;2023-05-29T02:34:05;13.20;83.60
802;DHT22;383;48.766;9.270;2023-05-29T02:36:33;13.20;83.70
802;DHT22;383;48.766;9.270;2023-05-29T02:39:02;13.10;84.10
802;DHT22;383;48.766;9.270;2023-05-29T02:41:29;13.00;84.40
802;DHT22;383;48.766;9.270;2023-05-29T02:43:56;13.00;84.80
802;DHT22;383;48.766;9.270;2023-05-29T02:46:22;13.00;84.70
802;DHT22;383;48.766;9.270;2023-05-29T02:48:49;13.00;84.70
802;DHT22;383;48.766;9.270;2023-05-29T02:51:16;13.00;84.80
802;DHT22;383;48.766;9.270;2023-05-29T02:53:44;13.00;84.80
802;DHT22;383;48.766;9.270;2023-05-29T02:56:10;13.00;84.80
802;DHT22;383;48.766;9.270;2023-05-29T02:58:37;13.00;84.70
802;DHT22;383;48.766;9.270;2023-05-29T03:01:04;12.90;84.80
802;DHT22;383;48.766;9.270;2023-05-29T03:03:31;12.90;84.90
802;DHT22;383;48.766;9.270;2023-05-29T03:05:57;12.80;85.20
802;DHT22;383;48.766;9.270;2023-05-29T03:08:24;12.80;85.10
802;DHT22;383;48.766;9.270;2023-05-29T03:10:54;12.80;84.90
802;DHT22;383;48.766;9.270;2023-05-29T03:13:22;12.80;85.30
802;DHT22;383;48.766;9.270;2023-05-29T03:15:49;12.70;85.30
802;DHT22;383;48.766;9.270;2023-05-29T03:18:16;12.70;85.60
802;DHT22;383;48.766;9.270;2023-05-29T03:20:43;12.70;85.50
802;DHT22;383;48.766;9.270;2023-05-29T03:23:09;12.70;85.50
802;DHT22;383;48.766;9.270;2023-05-29T03:25:36;12.60;86.00
802;DHT22;383;48.766;9.270;2023-05-29T03:28:04;12.60;86.10
802;DHT22;383;48.766;9.270;2023-05-29T03:30:31;12.60;86.30
802;DHT22;383;48.766;9.270;2023-05-29T03:32:57;12.50;86.40
802;DHT22;383;48.766;9.270;2023-05-29T03:35:28;12.50;86.90
802;DHT22;383;48.766;9.270;2023-05-29T03:37:55;12.50;86.80
802;DHT22;383;48.766;9.270;2023-05-29T03:40:22;12.50;86.70
802;DHT22;383;48.766;9.270;2023-05-29T03:42:48;12.50;86.90
802;DHT22;383;48.766;9.270;2023-05-29T03:45:17;12.40;87.10
802;DHT22;383;48.766;9.270;2023-05-29T03:47:44;12.40;87.20
802;DHT22;383;48.766;9.270;2023-05-29T03:50:11;12.50;87.10
802;DHT22;383;48.766;9.270;2023-05-29T03:52:40;12.50;86.80
802;DHT22;383;48.766;9.270;2023-05-29T03:55:09;12.40;87.10
802;DHT22;383;48.766;9.270;2023-05-29T03:57:38;12.40;86.90
802;DHT22;383;48.766;9.270;2023-05-29T04:00:07;12.40;87.10
802;DHT22;383;48.766;9.270;2023-05-29T04:02:36;12.50;86.90
802;DHT22;383;48.766;9.270;2023-05-29T04:05:03;12.40;87.20
802;DHT22;383;48.766;9.270;2023-05-29T04:07:30;12.40;87.30
802;DHT22;383;48.766;9.270;2023-05-29T04:09:57;12.40;87.60
802;DHT22;383;48.766;9.270;2023-05-29T04:12:23;12.40;87.60
802;DHT22;383;48.766;9.270;2023-05-29T04:14:50;12.40;87.80
802;DHT22;383;48.766;9.270;2023-05-29T04:17:17;12.40;87.80
802;DHT22;383;48.766;9.270;2023-05-29T04:19:45;12.40;87.70
802;DHT22;383;48.766;9.270;2023-05-29T04:22:11;12.40;87.70
802;DHT22;383;48.766;9.270;2023-05-29T04:24:38;12.50;87.60
802;DHT22;383;48.766;9.270;2023-05-29T04:27:05;12.60;87.40
802;DHT22;383;48.766;9.270;2023-05-29T04:29:31;12.60;87.40
802;DHT22;383;48.766;9.270;2023-05-29T04:32:00;12.60;87.60
802;DHT22;383;48.766;9.270;2023-05-29T04:34:28;12.60;87.60
802;DHT22;383;48.766;9.270;2023-05-29T04:36:57;12.70;87.40
802;DHT22;383;48.766;9.270;2023-05-29T04:39:24;12.70;87.80
802;DHT22;383;48.766;9.270;2023-05-29T04:41:51;12.80;87.80
802;DHT22;383;48.766;9.270;2023-05-29T04:44:18;12.80;87.40
802;DHT22;383;48.766;9.270;2023-05-29T04:46:44;12.80;87.80
802;DHT22;383;48.766;9.270;2023-05-29T04:49:12;12.70;88.20
802;DHT22;383;48.766;9.270;2023-05-29T04:51:39;12.80;88.50
802;DHT22;383;48.766;9.270;2023-05-29T04:54:08;12.80;88.80
802;DHT22;383;48.766;9.270;2023-05-29T04:56:35;12.80;89.00
802;DHT22;383;48.766;9.270;2023-05-29T04:59:02;12.80;89.40
802;DHT22;383;48.766;9.270;2023-05-29T05:01:29;12.90;89.40
802;DHT22;383;48.766;9.270;2023-05-29T05:03:58;12.90;89.30
802;DHT22;383;48.766;9.270;2023-05-29T05:06:25;13.00;89.30
802;DHT22;383;48.766;9.270;2023-05-29T05:08:52;13.10;89.20
802;DHT22;383;48.766;9.270;2023-05-29T05:11:22;13.10;89.30
802;DHT22;383;48.766;9.270;2023-05-29T05:13:50;13.20;89.20
802;DHT22;383;48.766;9.270;2023-05-29T05:16:17;13.30;89.00
802;DHT22;383;48.766;9.270;2023-05-29T05:18:44;13.30;88.80
802;DHT22;383;48.766;9.270;2023-05-29T05:21:11;13.40;88.50
802;DHT22;383;48.766;9.270;2023-05-29T05:23:38;13.50;88.60
802;DHT22;383;48.766;9.270;2023-05-29T05:26:04;13.50;88.90
802;DHT22;383;48.766;9.270;2023-05-29T05:28:32;13.60;89.00
802;DHT22;383;48.766;9.270;2023-05-29T05:31:01;13.70;89.30
802;DHT22;383;48.766;9.270;2023-05-29T05:33:28;13.80;89.40
802;DHT22;383;48.766;9.270;2023-05-29T05:35:54;14.00;88.90
802;DHT22;383;48.766;9.270;2023-05-29T05:38:21;14.10;88.40
802;DHT22;383;48.766;9.270;2023-05-29T05:40:49;14.20;87.70
802;DHT22;383;48.766;9.270;2023-05-29T05:43:15;14.40;87.60
802;DHT22;383;48.766;9.270;2023-05-29T05:45:44;14.40;87.10
802;DHT22;383;48.766;9.270;2023-05-29T05:48:11;14.50;86.80
802;DHT22;383;48.766;9.270;2023-05-29T05:50:38;14.50;85.10
802;DHT22;383;48.766;9.270;2023-05-29T05:53:05;14.60;84.80
802;DHT22;383;48.766;9.270;2023-05-29T05:55:31;14.70;85.10
802;DHT22;383;48.766;9.270;2023-05-29T05:57:58;14.80;82.70
802;DHT22;383;48.766;9.270;2023-05-29T06:00:25;14.90;83.40
802;DHT22;383;48.766;9.270;2023-05-29T06:03:01;15.10;83.60
802;DHT22;383;48.766;9.270;2023-05-29T06:05:29;15.20;83.10
802;DHT22;383;48.766;9.270;2023-05-29T06:07:55;15.40;81.00
802;DHT22;383;48.766;9.270;2023-05-29T06:10:22;15.50;80.40
802;DHT22;383;48.766;9.270;2023-05-29T06:12:49;15.60;79.80
802;DHT22;383;48.766;9.270;2023-05-29T06:15:19;15.70;79.70
802;DHT22;383;48.766;9.270;2023-05-29T06:17:45;15.80;80.20
802;DHT22;383;48.766;9.270;2023-05-29T06:20:13;16.10;78.10
802;DHT22;383;48.766;9.270;2023-05-29T06:22:40;16.30;77.40
802;DHT22;383;48.766;9.270;2023-05-29T06:25:07;16.50;75.60
802;DHT22;383;48.766;9.270;2023-05-29T06:27:34;16.70;75.00
802;DHT22;383;48.766;9.270;2023-05-29T06:30:01;16.80;75.70
802;DHT22;383;48.766;9.270;2023-05-29T06:32:28;17.00;74.90
802;DHT22;383;48.766;9.270;2023-05-29T06:34:54;17.10;72.80
802;DHT22;383;48.766;9.270;2023-05-29T06:37:22;17.20;72.00
802;DHT22;383;48.766;9.270;2023-05-29T06:39:49;17.20;72.40
802;DHT22;383;48.766;9.270;2023-05-29T06:42:16;17.30;72.10
802;DHT22;383;48.766;9.270;2023-05-29T06:44:42;17.50;72.40
802;DHT22;383;48.766;9.270;2023-05-29T06:47:09;17.60;72.60
802;DHT22;383;48.766;9.270;2023-05-29T06:49:36;17.80;71.20
802;DHT22;383;48.766;9.270;2023-05-29T06:52:03;17.90;72.00
802;DHT22;383;48.766;9.270;2023-05-29T06:54:31;18.00;69.10
802;DHT22;383;48.766;9.270;2023-05-29T06:56:57;18.20;66.40
802;DHT22;383;48.766;9.270;2023-05-29T06:59:24;18.30;65.80
802;DHT22;383;48.766;9.270;2023-05-29T07:01:51;18.40;66.40
802;DHT22;383;48.766;9.270;2023-05-29T07:04:17;18.50;68.80
802;DHT22;383;48.766;9.270;2023-05-29T07:06:44;18.60;67.50
802;DHT22;383;48.766;9.270;2023-05-29T07:09:11;18.80;65.90
802;DHT22;383;48.766;9.270;2023-05-29T07:11:39;19.00;64.10
802;DHT22;383;48.766;9.270;2023-05-29T07:14:06;19.10;64.50
802;DHT22;383;48.766;9.270;2023-05-29T07:16:32;19.20;64.10
802;DHT22;383;48.766;9.270;2023-05-29T07:18:59;19.20;64.20
802;DHT22;383;48.766;9.270;2023-05-29T07:21:26;19.30;63.30
802;DHT22;383;48.766;9.270;2023-05-29T07:23:53;19.30;63.50
802;DHT22;383;48.766;9.270;2023-05-29T07:26:20;19.40;61.90
802;DHT22;383;48.766;9.270;2023-05-29T07:28:49;19.50;63.10
802;DHT22;383;48.766;9.270;2023-05-29T07:31:16;19.60;63.10
802;DHT22;383;48.766;9.270;2023-05-29T07:33:43;19.70;61.70
802;DHT22;383;48.766;9.270;2023-05-29T07:36:09;19.80;62.30
802;DHT22;383;48.766;9.270;2023-05-29T07:38:36;20.00;62.10
802;DHT22;383;48.766;9.270;2023-05-29T07:41:03;20.20;60.80
802;DHT22;383;48.766;9.270;2023-05-29T07:43:30;20.20;60.80
802;DHT22;383;48.766;9.270;2023-05-29T07:45:58;20.30;60.50
802;DHT22;383;48.766;9.270;2023-05-29T07:48:24;20.40;60.80
802;DHT22;383;48.766;9.270;2023-05-29T07:50:51;20.50;61.00
802;DHT22;383;48.766;9.270;2023-05-29T07:53:18;20.50;60.20
802;DHT22;383;48.766;9.270;2023-05-29T07:55:45;20.60;58.60
802;DHT22;383;48.766;9.270;2023-05-29T07:58:12;20.60;58.20
802;DHT22;383;48.766;9.270;2023-05-29T08:00:39;20.60;60.00
802;DHT22;383;48.766;9.270;2023-05-29T08:03:07;20.70;59.10
802;DHT22;383;48.766;9.270;2023-05-29T08:05:34;20.80;59.30
802;DHT22;383;48.766;9.270;2023-05-29T08:08:00;20.90;59.20
802;DHT22;383;48.766;9.270;2023-05-29T08:10:27;21.10;57.80
802;DHT22;383;48.766;9.270;2023-05-29T08:12:53;21.20;57.70
802;DHT22;383;48.766;9.270;2023-05-29T08:15:20;21.20;57.50
802;DHT22;383;48.766;9.270;2023-05-29T08:17:49;21.20;58.50
802;DHT22;383;48.766;9.270;2023-05-29T08:20:17;21.40;58.00
802;DHT22;383;48.766;9.270;2023-05-29T08:22:44;21.50;56.90
802;DHT22;383;48.766;9.270;2023-05-29T08:25:11;21.70;57.60
802;DHT22;383;48.766;9.270;2023-05-29T08:27:37;21.90;56.70
802;DHT22;383;48.766;9.270;2023-05-29T08:30:05;22.10;56.20
802;DHT22;383;48.766;9.270;2023-05-29T08:32:31;22.20;54.70
802;DHT22;383;48.766;9.270;2023-05-29T08:34:58;22.30;55.50
802;DHT22;383;48.766;9.270;2023-05-29T08:37:26;22.30;55.10
802;DHT22;383;48.766;9.270;2023-05-29T08:39:53;22.30;55.70
802;DHT22;383;48.766;9.270;2023-05-29T08:42:23;22.60;56.40
802;DHT22;383;48.766;9.270;2023-05-29T08:44:56;22.80;53.10
802;DHT22;383;48.766;9.270;2023-05-29T08:47:26;23.00;53.00
802;DHT22;383;48.766;9.270;2023-05-29T08:49:54;23.10;53.30
802;DHT22;383;48.766;9.270;2023-05-29T08:52:23;23.30;53.60
802;DHT22;383;48.766;9.270;2023-05-29T08:54:52;23.30;52.10
802;DHT22;383;48.766;9.270;2023-05-29T08:57:19;23.40;51.80
802;DHT22;383;48.766;9.270;2023-05-29T08:59:47;23.50;53.40
802;DHT22;383;48.766;9.270;2023-05-29T09:02:16;23.60;53.00
802;DHT22;383;48.766;9.270;2023-05-29T09:04:43;23.70;54.10
802;DHT22;383;48.766;9.270;2023-05-29T09:07:11;23.70;54.00
802;DHT22;383;48.766;9.270;2023-05-29T09:09:38;23.60;54.00
802;DHT22;383;48.766;9.270;2023-05-29T09:12:06;23.70;55.00
802;DHT22;383;48.766;9.270;2023-05-29T09:14:36;23.70;54.30
802;DHT22;383;48.766;9.270;2023-05-29T09:17:03;23.80;53.50
802;DHT22;383;48.766;9.270;2023-05-29T09:19:31;23.80;54.10
802;DHT22;383;48.766;9.270;2023-05-29T09:22:05;24.00;53.80
802;DHT22;383;48.766;9.270;2023-05-29T09:24:34;24.10;53.90
802;DHT22;383;48.766;9.270;2023-05-29T09:27:02;24.10;53.50
802;DHT22;383;48.766;9.270;2023-05-29T09:29:32;24.10;53.30
802;DHT22;383;48.766;9.270;2023-05-29T09:31:59;24.20;52.40
802;DHT22;383;48.766;9.270;2023-05-29T09:34:26;24.20;52.90
802;DHT22;383;48.766;9.270;2023-05-29T09:36:53;24.30;53.00
802;DHT22;383;48.766;9.270;2023-05-29T09:39:21;24.50;53.00
802;DHT22;383;48.766;9.270;2023-05-29T09:41:48;24.50;52.50
802;DHT22;383;48.766;9.270;2023-05-29T09:44:15;24.50;51.90
802;DHT22;383;48.766;9.270;2023-05-29T09:46:43;24.60;52.90
802;DHT22;383;48.766;9.270;2023-05-29T09:51:48;25.00;50.20
802;DHT22;383;48.766;9.270;2023-05-29T09:54:19;25.10;49.30
802;DHT22;383;48.766;9.270;2023-05-29T09:56:46;25.20;50.20
802;DHT22;383;48.766;9.270;2023-05-29T09:59:14;25.30;50.90
802;DHT22;383;48.766;9.270;2023-05-29T10:01:44;25.40;48.70
802;DHT22;383;48.766;9.270;2023-05-29T10:04:11;25.50;48.20
802;DHT22;383;48.766;9.270;2023-05-29T10:06:42;25.70;48.90
802;DHT22;383;48.766;9.270;2023-05-29T10:09:12;25.70;47.80
802;DHT22;383;48.766;9.270;2023-05-29T10:11:42;25.70;45.60
802;DHT22;383;48.766;9.270;2023-05-29T10:14:16;25.70;44.50
802;DHT22;383;48.766;9.270;2023-05-29T10:16:47;25.70;46.60
802;DHT22;383;48.766;9.270;2023-05-29T10:19:18;25.70;47.80
802;DHT22;383;48.766;9.270;2023-05-29T10:21:47;25.90;48.30
802;DHT22;383;48.766;9.270;2023-05-29T10:24:16;26.00;47.70
802;DHT22;383;48.766;9.270;2023-05-29T10:26:47;26.00;49.40
802;DHT22;383;48.766;9.270;2023-05-29T10:29:17;26.00;48.30
802;DHT22;383;48.766;9.270;2023-05-29T10:31:58;26.10;44.20
802;DHT22;383;48.766;9.270;2023-05-29T10:34:32;26.10;45.00
802;DHT22;383;48.766;9.270;2023-05-29T10:37:06;25.90;44.20
802;DHT22;383;48.766;9.270;2023-05-29T10:39:33;26.10;44.00
802;DHT22;383;48.766;9.270;2023-05-29T10:44:39;26.40;43.50
802;DHT22;383;48.766;9.270;2023-05-29T10:47:10;26.40;43.00
802;DHT22;383;48.766;9.270;2023-05-29T10:49:38;26.50;42.80
802;DHT22;383;48.766;9.270;2023-05-29T10:52:05;26.50;44.00
802;DHT22;383;48.766;9.270;2023-05-29T10:54:41;26.70;44.00
802;DHT22;383;48.766;9.270;2023-05-29T10:57:16;26.70;42.50
802;DHT22;383;48.766;9.270;2023-05-29T10:59:45;26.80;42.40
802;DHT22;383;48.766;9.270;2023-05-29T11:02:17;26.90;41.60
802;DHT22;383;48.766;9.270;2023-05-29T11:04:44;26.90;42.10
802;DHT22;383;48.766;9.270;2023-05-29T11:07:33;27.00;42.40
802;DHT22;383;48.766;9.270;2023-05-29T11:10:11;27.00;39.90
802;DHT22;383;48.766;9.270;2023-05-29T11:12:57;26.90;40.00
802;DHT22;383;48.766;9.270;2023-05-29T11:15:24;26.90;38.80
802;DHT22;383;48.766;9.270;2023-05-29T11:17:53;26.80;39.10
802;DHT22;383;48.766;9.270;2023-05-29T11:20:34;26.80;40.10
802;DHT22;383;48.766;9.270;2023-05-29T11:23:03;26.80;39.00
802;DHT22;383;48.766;9.270;2023-05-29T11:25:34;26.90;39.40
802;DHT22;383;48.766;9.270;2023-05-29T11:28:03;27.00;39.40
802;DHT22;383;48.766;9.270;2023-05-29T11:30:44;27.00;39.10
802;DHT22;383;48.766;9.270;2023-05-29T11:33:19;27.10;39.40
802;DHT22;383;48.766;9.270;2023-05-29T11:35:52;27.10;39.70
802;DHT22;383;48.766;9.270;2023-05-29T11:38:21;27.10;39.60
802;DHT22;383;48.766;9.270;2023-05-29T11:40:48;27.10;39.50
802;DHT22;383;48.766;9.270;2023-05-29T11:43:16;27.00;34.00
802;DHT22;383;48.766;9.270;2023-05-29T11:45:43;27.00;36.20
802;DHT22;383;48.766;9.270;2023-05-29T11:48:20;27.20;36.30
802;DHT22;383;48.766;9.270;2023-05-29T11:50:52;27.20;35.00
802;DHT22;383;48.766;9.270;2023-05-29T11:53:19;26.90;36.80
802;DHT22;383;48.766;9.270;2023-05-29T11:55:46;27.00;37.50
802;DHT22;383;48.766;9.270;2023-05-29T11:58:13;27.00;38.90
802;DHT22;383;48.766;9.270;2023-05-29T12:00:41;27.10;38.50
802;DHT22;383;48.766;9.270;2023-05-29T12:03:12;27.30;34.50
802;DHT22;383;48.766;9.270;2023-05-29T12:05:46;27.20;34.70
802;DHT22;383;48.766;9.270;2023-05-29T12:08:14;27.30;35.30
802;DHT22;383;48.766;9.270;2023-05-29T12:10:47;27.50;36.40
802;DHT22;383;48.766;9.270;2023-05-29T12:13:15;27.70;35.80
802;DHT22;383;48.766;9.270;2023-05-29T12:15:42;27.80;36.40
802;DHT22;383;48.766;9.270;2023-05-29T12:18:09;27.90;34.30
802;DHT22;383;48.766;9.270;2023-05-29T12:20:40;27.70;35.40
802;DHT22;383;48.766;9.270;2023-05-29T12:23:13;27.80;36.30
802;DHT22;383;48.766;9.270;2023-05-29T12:25:40;27.90;34.90
802;DHT22;383;48.766;9.270;2023-05-29T12:28:18;28.00;35.30
802;DHT22;383;48.766;9.270;2023-05-29T12:30:47;28.10;34.50
802;DHT22;383;48.766;9.270;2023-05-29T12:33:28;28.20;34.00
802;DHT22;383;48.766;9.270;2023-05-29T12:36:03;28.20;34.90
802;DHT22;383;48.766;9.270;2023-05-29T12:38:41;28.40;34.20
802;DHT22;383;48.766;9.270;2023-05-29T12:41:24;28.30;34.00
802;DHT22;383;48.766;9.270;2023-05-29T12:43:53;28.40;33.40
802;DHT22;383;48.766;9.270;2023-05-29T12:46:22;28.30;32.90
802;DHT22;383;48.766;9.270;2023-05-29T12:48:49;28.30;33.70
802;DHT22;383;48.766;9.270;2023-05-29T12:51:22;28.30;33.90
802;DHT22;383;48.766;9.270;2023-05-29T12:53:49;28.20;33.90
802;DHT22;383;48.766;9.270;2023-05-29T12:56:16;28.30;33.90
802;DHT22;383;48.766;9.270;2023-05-29T12:58:44;28.30;33.10
802;DHT22;383;48.766;9.270;2023-05-29T13:01:13;28.30;33.40
802;DHT22;383;48.766;9.270;2023-05-29T13:03:43;28.30;33.20
802;DHT22;383;48.766;9.270;2023-05-29T13:06:10;28.20;33.10
802;DHT22;383;48.766;9.270;2023-05-29T13:08:38;28.10;33.70
802;DHT22;383;48.766;9.270;2023-05-29T13:11:07;28.10;32.30
802;DHT22;383;48.766;9.270;2023-05-29T13:13:34;28.30;32.70
802;DHT22;383;48.766;9.270;2023-05-29T13:16:01;28.40;32.70
802;DHT22;383;48.766;9.270;2023-05-29T13:18:28;28.40;33.10
802;DHT22;383;48.766;9.270;2023-05-29T13:20:55;28.40;32.90
802;DHT22;383;48.766;9.270;2023-05-29T13:23:22;28.50;33.10
802;DHT22;383;48.766;9.270;2023-05-29T13:25:50;28.60;34.20
802;DHT22;383;48.766;9.270;2023-05-29T13:28:17;28.90;33.70
802;DHT22;383;48.766;9.270;2023-05-29T13:30:44;29.10;33.40
802;DHT22;383;48.766;9.270;2023-05-29T13:33:10;29.40;31.70
802;DHT22;383;48.766;9.270;2023-05-29T13:35:37;29.50;30.60
802;DHT22;383;48.766;9.270;2023-05-29T13:38:04;29.20;31.40
802;DHT22;383;48.766;9.270;2023-05-29T13:40:31;29.10;32.60
802;DHT22;383;48.766;9.270;2023-05-29T13:42:59;29.40;30.70
802;DHT22;383;48.766;9.270;2023-05-29T13:45:26;29.50;30.60
802;DHT22;383;48.766;9.270;2023-05-29T13:47:53;29.50;30.10
802;DHT22;383;48.766;9.270;2023-05-29T13:50:20;29.70;30.20
802;DHT22;383;48.766;9.270;2023-05-29T13:52:49;29.70;30.30
802;DHT22;383;48.766;9.270;2023-05-29T13:55:16;29.80;30.20
802;DHT22;383;48.766;9.270;2023-05-29T13:57:45;29.90;29.80
802;DHT22;383;48.766;9.270;2023-05-29T14:00:16;30.00;30.10
802;DHT22;383;48.766;9.270;2023-05-29T14:02:46;30.10;29.30
802;DHT22;383;48.766;9.270;2023-05-29T14:05:13;30.00;29.30
802;DHT22;383;48.766;9.270;2023-05-29T14:07:39;30.10;30.50
802;DHT22;383;48.766;9.270;2023-05-29T14:10:07;30.10;30.70
802;DHT22;383;48.766;9.270;2023-05-29T14:12:33;30.20;32.60
802;DHT22;383;48.766;9.270;2023-05-29T14:15:01;30.50;31.40
802;DHT22;383;48.766;9.270;2023-05-29T20:04:34;20.80;54.40
802;DHT22;383;48.766;9.270;2023-05-29T20:07:02;20.60;54.70
802;DHT22;383;48.766;9.270;2023-05-29T20:09:29;20.50;53.40
802;DHT22;383;48.766;9.270;2023-05-29T20:11:56;20.40;53.00
802;DHT22;383;48.766;9.270;2023-05-29T20:14:22;20.30;53.90
802;DHT22;383;48.766;9.270;2023-05-29T20:16:49;20.30;53.60
802;DHT22;383;48.766;9.270;2023-05-29T20:19:17;20.20;53.50
802;DHT22;383;48.766;9.270;2023-05-29T20:21:44;20.20;53.50
802;DHT22;383;48.766;9.270;2023-05-29T20:24:11;20.20;52.10
802;DHT22;383;48.766;9.270;2023-05-29T20:26:38;20.10;54.00
802;DHT22;383;48.766;9.270;2023-05-29T20:29:05;20.10;53.30
802;DHT22;383;48.766;9.270;2023-05-29T20:31:32;20.20;52.00
802;DHT22;383;48.766;9.270;2023-05-29T20:33:59;20.20;51.50
802;DHT22;383;48.766;9.270;2023-05-29T20:36:27;20.10;51.90
802;DHT22;383;48.766;9.270;2023-05-29T20:38:55;20.20;50.80
802;DHT22;383;48.766;9.270;2023-05-29T20:41:24;20.20;50.70
802;DHT22;383;48.766;9.270;2023-05-29T20:43:50;20.30;50.70
802;DHT22;383;48.766;9.270;2023-05-29T20:46:19;20.30;51.50
802;DHT22;383;48.766;9.270;2023-05-29T20:48:47;20.30;52.10
802;DHT22;383;48.766;9.270;2023-05-29T20:51:14;20.30;51.00
802;DHT22;383;48.766;9.270;2023-05-29T20:53:42;20.20;52.00
802;DHT22;383;48.766;9.270;2023-05-29T20:56:09;20.20;50.90
802;DHT22;383;48.766;9.270;2023-05-29T20:58:36;20.20;50.70
802;DHT22;383;48.766;9.270;2023-05-29T21:01:03;20.20;51.00
802;DHT22;383;48.766;9.270;2023-05-29T21:03:30;20.20;51.90
802;DHT22;383;48.766;9.270;2023-05-29T21:05:57;20.30;51.00
802;DHT22;383;48.766;9.270;2023-05-29T21:08:23;20.30;50.80
802;DHT22;383;48.766;9.270;2023-05-29T21:10:53;20.20;50.90
802;DHT22;383;48.766;9.270;2023-05-29T21:13:19;20.20;50.90
802;DHT22;383;48.766;9.270;2023-05-29T21:15:46;20.30;51.00
802;DHT22;383;48.766;9.270;2023-05-29T21:18:13;20.30;51.30
802;DHT22;383;48.766;9.270;2023-05-29T21:20:39;20.30;51.20
802;DHT22;383;48.766;9.270;2023-05-29T21:23:06;20.20;51.80
802;DHT22;383;48.766;9.270;2023-05-29T21:25:33;20.20;51.30
802;DHT22;383;48.766;9.270;2023-05-29T21:28:01;20.20;51.40
802;DHT22;383;48.766;9.270;2023-05-29T21:30:28;20.20;51.90
802;DHT22;383;48.766;9.270;2023-05-29T21:32:55;20.20;51.80
802;DHT22;383;48.766;9.270;2023-05-29T21:35:22;20.10;52.10
802;DHT22;383;48.766;9.270;2023-05-29T21:37:48;20.10;52.00
802;DHT22;383;48.766;9.270;2023-05-29T21:40:15;20.10;52.50
802;DHT22;383;48.766;9.270;2023-05-29T21:42:41;20.10;52.90
802;DHT22;383;48.766;9.270;2023-05-29T21:45:10;20.00;52.60
802;DHT22;383;48.766;9.270;2023-05-29T21:47:37;19.90;53.80
802;DHT22;383;48.766;9.270;2023-05-29T21:50:04;19.90;52.50
802;DHT22;383;48.766;9.270;2023-05-29T21:52:31;20.00;52.10
802;DHT22;383;48.766;9.270;2023-05-29T21:54:58;19.90;53.00
802;DHT22;383;48.766;9.270;2023-05-29T21:57:25;19.90;53.00
802;DHT22;383;48.766;9.270;2023-05-29T21:59:51;19.80;53.10
802;DHT22;383;48.766;9.270;2023-05-29T22:02:20;19.80;53.10
802;DHT22;383;48.766;9.270;2023-05-29T22:04:47;19.70;53.60
802;DHT22;383;48.766;9.270;2023-05-29T22:07:13;19.60;54.30
802;DHT22;383;48.766;9.270;2023-05-29T22:09:40;19.50;55.40
802;DHT22;383;48.766;9.270;2023-05-29T22:12:07;19.40;55.40
802;DHT22;383;48.766;9.270;2023-05-29T22:14:34;19.50;55.20
802;DHT22;383;48.766;9.270;2023-05-29T22:17:01;19.40;54.70
802;DHT22;383;48.766;9.270;2023-05-29T22:19:30;19.40;55.10
802;DHT22;383;48.766;9.270;2023-05-29T22:21:57;19.40;55.50
802;DHT22;383;48.766;9.270;2023-05-29T22:24:24;19.40;55.20
802;DHT22;383;48.766;9.270;2023-05-29T22:26:51;19.30;56.00
802;DHT22;383;48.766;9.270;2023-05-29T22:29:18;19.30;56.40
802;DHT22;383;48.766;9.270;2023-05-29T22:31:45;19.20;57.00